Main page
METAR-TAF:

METAR-TAF

Airports :

Le Havre – Octeville Airport

Le Havre, France

latitude: 49-31N, longitude: 000-04E, elevation: 100 m

Current weather observation

The report was made 38 minutes ago, at 05:00 UTC
Wind 6 kt from the West/Northwest
Temperature 16°C
Humidity 77%
Pressure 1017 hPa
Visibility 10 km or more
no clouds below 1500 m and no cumulonimbus

METAR: LFOH 170500Z AUTO 29006KT CAVOK 16/12 Q1017

Time: 07:38 (05:38 UTC)

Forecast

The report was made 18 hours and 38 minutes ago, at 11:00 UTC
Forecast valid from 16 at 12 UTC to 17 at 12 UTC
Wind 10 kt from the Northwest
Visibility 10 km or more
no clouds below 1500 m and no cumulonimbus
Temporary
from 16 at 19 UTC to 16 at 24 UTC
Broken clouds at a height of 500 ft

TAF: LFOH 161100Z 1612/1712 31010KT CAVOK TEMPO 1619/1624 BKN005

Weather observations and forecasts of more than 4000 airports (METAR and TAF reports).

The available stations are represented by yellow and red dots on the map.

Hover mouse over dot to see the name of the station.

Then click to see weather observations and forecasts.

To change the map : click on the green buttons with a black cross to zoom in, on the green button with a dash to zoom out, or on the green arrows for adjacent maps.


METAR-TAF: